createdAt,value
2022-08-09T00:00:00.734Z,51.86
2022-08-09T00:02:36.896Z,52.12
2022-08-09T00:06:17.291Z,52.25
2022-08-09T00:07:56.672Z,52.40
2022-08-09T00:10:28.105Z,52.53
2022-08-09T00:12:54.717Z,52.49
2022-08-09T00:15:26.826Z,52.58
2022-08-09T00:18:11.547Z,52.55
2022-08-09T00:20:42.531Z,52.81
2022-08-09T00:23:55.721Z,52.40
2022-08-09T00:26:07.466Z,52.62
2022-08-09T00:28:35.175Z,52.54
2022-08-09T00:31:09.349Z,52.92
2022-08-09T00:33:51.901Z,52.67
2022-08-09T00:36:20.918Z,52.86
2022-08-09T00:38:50.675Z,52.85
2022-08-09T00:44:10.935Z,52.91
2022-08-09T00:44:15.997Z,53.00
2022-08-09T00:46:57.387Z,53.19
2022-08-09T00:49:31.044Z,53.10
2022-08-09T00:51:57.975Z,53.14
2022-08-09T00:54:31.455Z,53.28
2022-08-09T00:57:02.909Z,53.13
2022-08-09T00:59:41.067Z,53.26
2022-08-09T01:02:15.736Z,53.38
2022-08-09T01:04:57.548Z,54.24
2022-08-09T01:08:00.994Z,53.71
2022-08-09T01:10:34.018Z,53.42
2022-08-09T01:13:22.696Z,53.85
2022-08-09T01:15:52.970Z,53.61
2022-08-09T01:18:29.944Z,53.72
2022-08-09T01:21:09.993Z,54.02
2022-08-09T01:24:02.743Z,53.63
2022-08-09T01:26:56.440Z,53.34
2022-08-09T01:29:41.234Z,53.77
2022-08-09T01:32:32.042Z,53.54
2022-08-09T01:35:29.205Z,53.95
2022-08-09T01:38:09.460Z,54.06
2022-08-09T01:40:42.141Z,54.09
2022-08-09T01:43:10.698Z,53.60
2022-08-09T01:45:46.392Z,53.83
2022-08-09T01:48:20.087Z,54.21
2022-08-09T01:50:58.188Z,53.79
2022-08-09T01:53:29.070Z,53.95
2022-08-09T01:56:03.227Z,53.88
2022-08-09T01:58:33.296Z,54.02
2022-08-09T02:01:01.943Z,54.02
2022-08-09T02:03:30.135Z,53.96
2022-08-09T02:06:06.510Z,54.26
2022-08-09T02:08:57.073Z,54.60
2022-08-09T02:11:40.273Z,54.51
2022-08-09T02:14:15.957Z,54.33
2022-08-09T02:16:59.623Z,54.46
2022-08-09T02:19:43.254Z,54.37
2022-08-09T02:22:19.228Z,54.97
2022-08-09T02:25:01.385Z,54.65
2022-08-09T02:27:57.523Z,54.59
2022-08-09T02:30:18.085Z,54.45
2022-08-09T02:32:48.534Z,54.73
2022-08-09T02:35:32.345Z,55.22
2022-08-09T02:38:21.822Z,54.45
2022-08-09T02:41:00.184Z,55.57
2022-08-09T02:43:30.914Z,55.23
2022-08-09T02:46:17.971Z,54.83
2022-08-09T02:48:46.793Z,54.95
2022-08-09T02:51:17.497Z,55.35
2022-08-09T02:53:53.018Z,55.52
2022-08-09T02:56:28.452Z,54.74
2022-08-09T02:58:57.142Z,55.20
2022-08-09T03:01:29.308Z,55.02
2022-08-09T03:04:18.088Z,55.14
2022-08-09T03:06:48.828Z,55.24
2022-08-09T03:09:17.341Z,55.35
2022-08-09T03:12:05.242Z,55.39
2022-08-09T03:14:32.796Z,55.51
2022-08-09T03:17:01.655Z,55.60
2022-08-09T03:19:58.931Z,55.63
2022-08-09T03:22:19.767Z,55.74
2022-08-09T03:25:05.724Z,55.76
2022-08-09T03:27:45.580Z,55.80
2022-08-09T03:30:13.771Z,55.66
2022-08-09T03:32:43.066Z,55.72
2022-08-09T03:35:24.233Z,55.59
2022-08-09T03:37:55.341Z,55.60
2022-08-09T03:40:25.230Z,55.69
2022-08-09T03:42:57.492Z,55.85
2022-08-09T03:46:03.949Z,55.71
2022-08-09T03:48:10.910Z,55.73
2022-08-09T03:50:39.380Z,55.95
2022-08-09T03:53:10.650Z,55.92
2022-08-09T03:55:41.321Z,55.93
2022-08-09T03:58:14.676Z,56.07
2022-08-09T04:00:42.928Z,56.27
2022-08-09T04:03:11.711Z,56.29
2022-08-09T04:05:46.743Z,56.05
2022-08-09T04:08:13.557Z,56.26
2022-08-09T04:10:40.137Z,56.48
2022-08-09T04:13:06.703Z,56.26
2022-08-09T04:16:18.756Z,56.57
2022-08-09T04:18:21.604Z,56.39
2022-08-09T04:20:49.431Z,56.63
2022-08-09T04:23:17.399Z,56.69
2022-08-09T04:25:51.803Z,56.65
2022-08-09T04:28:30.763Z,56.66
2022-08-09T04:31:05.710Z,56.71
2022-08-09T04:33:52.157Z,56.93
2022-08-09T04:36:25.359Z,57.48
2022-08-09T04:38:53.217Z,56.82
2022-08-09T04:41:24.028Z,56.74
2022-08-09T04:44:05.209Z,56.96
2022-08-09T04:46:38.090Z,56.93
2022-08-09T04:49:22.361Z,56.89
2022-08-09T04:52:07.650Z,57.03
2022-08-09T04:54:37.042Z,56.87
2022-08-09T04:57:04.289Z,57.21
2022-08-09T04:59:31.694Z,57.29
2022-08-09T05:01:59.019Z,57.37
2022-08-09T05:04:31.389Z,57.19
2022-08-09T05:06:58.801Z,57.34
2022-08-09T05:09:25.515Z,57.13
2022-08-09T05:12:09.659Z,57.12
2022-08-09T05:14:37.757Z,57.04
2022-08-09T05:18:36.897Z,57.16
2022-08-09T05:19:56.988Z,57.34
2022-08-09T05:23:51.067Z,57.31
2022-08-09T05:25:15.167Z,57.36
2022-08-09T05:27:46.472Z,57.31
2022-08-09T05:30:15.964Z,57.55
2022-08-09T05:32:45.525Z,57.72
2022-08-09T05:35:17.948Z,57.82
2022-08-09T05:37:47.752Z,57.98
2022-08-09T05:40:15.428Z,58.28
2022-08-09T05:42:42.789Z,58.33
2022-08-09T05:45:10.373Z,58.53
2022-08-09T05:47:52.264Z,58.77
2022-08-09T05:50:25.806Z,58.91
2022-08-09T05:53:01.900Z,58.71
2022-08-09T05:55:28.599Z,58.65
2022-08-09T05:57:58.257Z,58.81
2022-08-09T06:00:32.751Z,58.73
2022-08-09T06:03:01.985Z,58.49
2022-08-09T06:05:57.817Z,58.10
2022-08-09T06:08:19.410Z,57.80
2022-08-09T06:10:50.957Z,57.39
2022-08-09T06:13:18.875Z,56.99
2022-08-09T06:15:52.338Z,56.30
2022-08-09T06:18:25.371Z,56.07
2022-08-09T06:20:54.943Z,55.62
2022-08-09T06:23:57.962Z,55.33
2022-08-09T06:26:20.276Z,55.14
2022-08-09T06:28:59.362Z,54.91
2022-08-09T06:31:31.488Z,55.08
2022-08-09T06:34:06.775Z,54.86
2022-08-09T06:36:33.929Z,54.18
2022-08-09T06:39:02.641Z,54.11
2022-08-09T06:41:55.845Z,54.20
2022-08-09T06:44:24.571Z,53.91
2022-08-09T06:46:55.232Z,54.10
2022-08-09T06:49:29.390Z,53.64
2022-08-09T06:52:10.343Z,52.64
2022-08-09T06:54:38.794Z,52.59
2022-08-09T06:57:08.287Z,52.45
2022-08-09T07:00:50.099Z,52.72
2022-08-09T07:02:22.029Z,52.15
2022-08-09T07:04:56.157Z,51.75
2022-08-09T07:08:00.846Z,51.26
2022-08-09T07:10:22.336Z,51.63
2022-08-09T07:12:57.067Z,51.70
2022-08-09T07:16:35.204Z,51.11
2022-08-09T07:18:11.394Z,50.84
2022-08-09T07:20:43.407Z,50.56
2022-08-09T07:23:19.097Z,50.48
2022-08-09T07:25:47.722Z,49.88
2022-08-09T07:28:26.234Z,49.69
2022-08-09T07:30:55.339Z,49.59
2022-08-09T07:33:22.276Z,49.75
2022-08-09T07:35:54.080Z,49.92
2022-08-09T07:38:23.520Z,49.85
2022-08-09T07:41:09.928Z,49.40
2022-08-09T07:43:41.145Z,49.61
2022-08-09T07:46:08.134Z,48.65
2022-08-09T07:48:39.175Z,48.01
2022-08-09T07:52:02.492Z,47.98
2022-08-09T07:54:04.936Z,47.74
2022-08-09T07:56:34.931Z,47.62
2022-08-09T07:59:12.339Z,47.44
2022-08-09T08:01:40.940Z,46.71
2022-08-09T08:04:10.446Z,44.71
2022-08-09T08:06:37.563Z,43.67
2022-08-09T08:09:36.419Z,44.42
2022-08-09T08:12:28.047Z,44.79
2022-08-09T08:14:57.003Z,45.11
2022-08-09T08:17:35.200Z,41.42
2022-08-09T08:20:13.217Z,43.35
2022-08-09T08:22:41.127Z,43.24
2022-08-09T08:25:09.412Z,39.26
2022-08-09T08:27:43.187Z,40.32
2022-08-09T08:30:11.605Z,38.18
2022-08-09T08:35:22.288Z,39.15
2022-08-09T08:37:59.551Z,37.95
2022-08-09T08:40:29.660Z,38.87
2022-08-09T08:42:58.897Z,38.25
2022-08-09T08:45:51.341Z,37.72
2022-08-09T08:48:19.523Z,37.07
2022-08-09T08:50:49.303Z,39.73
2022-08-09T08:53:21.852Z,38.58
2022-08-09T08:55:49.116Z,38.52
2022-08-09T08:58:19.812Z,38.60
2022-08-09T09:00:57.109Z,37.22
2022-08-09T09:03:37.314Z,38.15
2022-08-09T09:06:05.509Z,38.42
2022-08-09T09:08:37.751Z,37.91
2022-08-09T09:11:06.990Z,37.67
2022-08-09T09:13:54.881Z,36.01
2022-08-09T09:16:34.254Z,36.17
2022-08-09T09:19:36.509Z,34.82
2022-08-09T09:21:56.697Z,33.88
2022-08-09T09:24:37.256Z,34.67
2022-08-09T09:27:06.596Z,35.89
2022-08-09T09:30:11.466Z,35.92
2022-08-09T09:32:38.200Z,35.67
2022-08-09T09:35:09.820Z,34.98
2022-08-09T09:37:40.531Z,34.48
2022-08-09T09:40:08.667Z,33.47
2022-08-09T09:42:35.696Z,34.79
2022-08-09T09:45:06.628Z,34.72
2022-08-09T09:47:42.266Z,34.34
2022-08-09T09:50:17.196Z,35.40
2022-08-09T09:52:53.764Z,34.39
2022-08-09T09:55:28.779Z,35.40
2022-08-09T09:58:16.976Z,35.79
2022-08-09T10:00:59.714Z,35.56
2022-08-09T10:03:42.841Z,35.15
2022-08-09T10:06:11.733Z,35.68
2022-08-09T10:08:43.045Z,35.26
2022-08-09T10:11:58.975Z,34.17
2022-08-09T10:14:31.051Z,35.42
2022-08-09T10:17:39.930Z,33.54
2022-08-09T10:19:57.275Z,33.15
2022-08-09T10:22:33.363Z,33.61
2022-08-09T10:25:07.038Z,34.71
2022-08-09T10:27:45.125Z,34.78
2022-08-09T10:34:07.862Z,35.08
2022-08-09T10:36:00.854Z,35.31
2022-08-09T10:38:54.800Z,35.27
2022-08-09T10:41:20.701Z,35.72
2022-08-09T10:43:58.708Z,33.78
2022-08-09T10:46:54.701Z,33.43
2022-08-09T10:49:51.794Z,32.69
2022-08-09T10:52:56.420Z,33.15
2022-08-09T10:55:35.834Z,32.81
2022-08-09T10:58:37.141Z,34.04
2022-08-09T11:03:02.630Z,34.21
2022-08-09T11:04:28.577Z,34.47
2022-08-09T11:07:00.293Z,34.25
2022-08-09T11:09:45.258Z,34.74
2022-08-09T11:12:17.642Z,32.07
2022-08-09T11:14:53.017Z,32.77
2022-08-09T11:17:22.376Z,33.15
2022-08-09T11:20:11.462Z,32.35
2022-08-09T11:22:45.931Z,31.33
2022-08-09T11:25:36.204Z,31.63
2022-08-09T11:28:38.629Z,32.42
2022-08-09T11:31:43.440Z,33.19
2022-08-09T11:34:35.154Z,33.79
2022-08-09T11:37:03.362Z,33.73
2022-08-09T11:40:00.642Z,33.17
2022-08-09T11:42:50.311Z,32.24
2022-08-09T11:45:42.431Z,29.57
2022-08-09T11:48:24.886Z,29.26
2022-08-09T11:51:38.136Z,28.93
2022-08-09T11:54:01.640Z,30.88
2022-08-09T11:56:34.475Z,31.45
2022-08-09T11:59:10.431Z,28.90
2022-08-09T12:02:16.340Z,28.78
2022-08-09T12:04:32.397Z,28.66
2022-08-09T12:07:04.187Z,28.89
2022-08-09T12:09:34.831Z,29.47
2022-08-09T12:12:04.683Z,28.43
2022-08-09T12:14:41.017Z,28.65
2022-08-09T12:17:27.849Z,29.26
2022-08-09T12:20:22.860Z,28.99
2022-08-09T12:23:07.770Z,30.33
2022-08-09T12:25:38.430Z,29.78
2022-08-09T12:29:11.408Z,28.82
2022-08-09T12:31:58.239Z,29.07
2022-08-09T12:34:07.740Z,29.56
2022-08-09T12:36:53.151Z,28.22
2022-08-09T12:39:26.231Z,29.63
2022-08-09T12:41:54.636Z,28.79
2022-08-09T12:44:24.625Z,28.26
2022-08-09T12:46:51.551Z,28.47
2022-08-09T12:49:20.832Z,26.76
2022-08-09T12:52:00.963Z,28.02
2022-08-09T12:55:00.757Z,28.44
2022-08-09T12:57:41.679Z,27.16
2022-08-09T13:00:25.056Z,29.07
2022-08-09T13:03:03.790Z,28.82
2022-08-09T13:05:52.351Z,29.65
2022-08-09T13:08:39.572Z,29.54
2022-08-09T13:11:23.133Z,29.24
2022-08-09T13:14:38.619Z,28.26
2022-08-09T13:16:47.079Z,28.18
2022-08-09T13:20:07.293Z,29.05
2022-08-09T13:22:35.594Z,27.69
2022-08-09T13:25:07.640Z,27.93
2022-08-09T13:27:40.081Z,27.62
2022-08-09T13:30:50.309Z,28.72
2022-08-09T13:33:11.621Z,27.48
2022-08-09T13:36:39.457Z,27.17
2022-08-09T13:38:55.039Z,27.81
2022-08-09T13:41:58.352Z,28.35
2022-08-09T13:44:08.395Z,28.03
2022-08-09T13:47:13.717Z,27.67
2022-08-09T13:49:29.412Z,26.38
2022-08-09T13:52:09.379Z,27.71
2022-08-09T13:54:36.498Z,26.09
2022-08-09T13:57:14.397Z,26.20
2022-08-09T13:59:58.191Z,26.80
2022-08-09T14:02:26.140Z,26.58
2022-08-09T14:04:59.548Z,25.96
2022-08-09T14:07:40.844Z,26.90
2022-08-09T14:10:17.513Z,26.63
2022-08-09T14:12:56.348Z,27.39
2022-08-09T14:16:09.267Z,27.18
2022-08-09T14:18:19.611Z,26.06
2022-08-09T14:20:56.359Z,26.31
2022-08-09T14:23:40.472Z,26.64
2022-08-09T14:26:10.054Z,26.97
2022-08-09T14:28:37.666Z,26.87
2022-08-09T14:31:04.374Z,27.06
2022-08-09T14:33:31.245Z,26.30
2022-08-09T14:36:20.586Z,25.85
2022-08-09T14:38:51.251Z,25.73
2022-08-09T14:41:39.850Z,24.05
2022-08-09T14:44:07.458Z,26.16
2022-08-09T14:46:58.130Z,25.31
2022-08-09T14:49:24.982Z,24.86
2022-08-09T14:51:51.871Z,24.11
2022-08-09T14:54:28.220Z,23.96
2022-08-09T14:56:58.872Z,23.31
2022-08-09T14:59:28.448Z,23.29
2022-08-09T15:01:55.858Z,21.11
2022-08-09T15:04:23.235Z,23.05
2022-08-09T15:06:51.706Z,22.59
2022-08-09T15:09:30.344Z,21.88
2022-08-09T15:12:08.192Z,23.87
2022-08-09T15:14:38.176Z,23.11
2022-08-09T15:17:05.998Z,22.88
2022-08-09T15:19:35.980Z,22.82
2022-08-09T15:22:03.669Z,23.02
2022-08-09T15:24:30.533Z,23.07
2022-08-09T15:26:57.647Z,23.05
2022-08-09T15:30:56.976Z,23.09
2022-08-09T15:32:29.163Z,22.64
2022-08-09T15:34:58.288Z,22.43
2022-08-09T15:37:37.675Z,21.85
2022-08-09T15:40:15.228Z,20.96
2022-08-09T15:42:48.554Z,21.03
2022-08-09T15:45:16.725Z,20.98
2022-08-09T15:48:03.366Z,20.92
2022-08-09T15:50:34.769Z,20.64
2022-08-09T15:53:17.882Z,20.26
2022-08-09T15:55:59.025Z,20.77
2022-08-09T15:58:39.554Z,20.90
2022-08-09T16:01:06.354Z,21.08
2022-08-09T16:03:38.622Z,20.74
2022-08-09T16:06:29.383Z,21.62
2022-08-09T16:08:55.605Z,21.25
2022-08-09T16:11:22.258Z,21.23
2022-08-09T16:14:03.695Z,20.42
2022-08-09T16:16:34.666Z,20.36
2022-08-09T16:19:04.984Z,20.45
2022-08-09T16:21:34.125Z,20.73
2022-08-09T16:24:02.925Z,21.14
2022-08-09T16:26:35.126Z,21.58
2022-08-09T16:29:10.545Z,21.25
2022-08-09T16:32:12.599Z,20.30
2022-08-09T16:34:28.834Z,20.72
2022-08-09T16:36:56.669Z,20.88
2022-08-09T16:39:25.752Z,20.64
2022-08-09T16:42:03.127Z,19.43
2022-08-09T16:44:31.864Z,20.03
2022-08-09T16:47:01.869Z,20.98
2022-08-09T16:50:31.352Z,20.69
2022-08-09T16:52:17.681Z,20.86
2022-08-09T16:54:45.872Z,20.32
2022-08-09T16:57:12.455Z,20.29
2022-08-09T16:59:43.828Z,20.58
2022-08-09T17:02:17.716Z,20.75
2022-08-09T17:04:44.546Z,20.99
2022-08-09T17:08:44.647Z,20.54
2022-08-09T17:10:01.915Z,19.93
2022-08-09T17:12:30.709Z,19.92
2022-08-09T17:14:58.548Z,20.80
2022-08-09T17:17:27.091Z,21.17
2022-08-09T17:20:29.145Z,20.48
2022-08-09T17:22:49.891Z,20.99
2022-08-09T17:25:19.097Z,21.17
2022-08-09T17:27:49.212Z,21.26
2022-08-09T17:30:26.313Z,21.49
2022-08-09T17:32:54.281Z,20.43
2022-08-09T17:35:20.792Z,20.52
2022-08-09T17:38:11.087Z,20.24
2022-08-09T17:40:34.866Z,20.97
2022-08-09T17:43:34.889Z,21.02
2022-08-09T17:46:03.612Z,21.68
2022-08-09T17:48:39.776Z,21.60
2022-08-09T17:51:18.266Z,22.49
2022-08-09T17:53:52.885Z,22.30
2022-08-09T17:56:28.803Z,22.59
2022-08-09T17:59:01.215Z,22.86
2022-08-09T18:01:58.163Z,22.96
2022-08-09T18:04:18.748Z,23.14
2022-08-09T18:06:54.052Z,22.97
2022-08-09T18:09:23.927Z,23.59
2022-08-09T18:12:05.854Z,24.19
2022-08-09T18:14:50.000Z,24.34
2022-08-09T18:17:27.432Z,25.04
2022-08-09T18:20:59.614Z,25.65
2022-08-09T18:22:55.242Z,26.35
2022-08-09T18:25:53.134Z,26.63
2022-08-09T18:28:21.424Z,27.33
2022-08-09T18:30:55.284Z,27.95
2022-08-09T18:33:23.011Z,28.07
2022-08-09T18:35:58.858Z,28.80
2022-08-09T18:38:27.391Z,29.32
2022-08-09T18:40:54.271Z,29.85
2022-08-09T18:43:22.244Z,29.97
2022-08-09T18:46:50.003Z,30.68
2022-08-09T18:48:36.971Z,30.88
2022-08-09T18:51:03.644Z,31.28
2022-08-09T18:53:56.586Z,31.45
2022-08-09T18:56:17.679Z,31.66
2022-08-09T18:58:47.174Z,32.20
2022-08-09T19:01:21.850Z,32.68
2022-08-09T19:04:00.949Z,32.85
2022-08-09T19:06:33.064Z,32.98
2022-08-09T19:09:02.895Z,33.01
2022-08-09T19:11:38.102Z,33.69
2022-08-09T19:14:06.620Z,33.72
2022-08-09T19:16:35.937Z,34.12
2022-08-09T19:19:23.766Z,34.48
2022-08-09T19:22:04.248Z,34.38
2022-08-09T19:24:38.782Z,35.01
2022-08-09T19:27:18.360Z,35.17
2022-08-09T19:30:24.692Z,35.19
2022-08-09T19:32:32.470Z,35.21
2022-08-09T19:35:00.242Z,35.60
2022-08-09T19:37:26.775Z,35.64
2022-08-09T19:40:04.248Z,35.74
2022-08-09T19:42:32.328Z,35.58
2022-08-09T19:44:59.180Z,36.00
2022-08-09T19:47:27.006Z,36.04
2022-08-09T19:50:47.877Z,36.10
2022-08-09T19:52:51.592Z,36.38
2022-08-09T19:55:19.713Z,36.67
2022-08-09T19:57:57.592Z,36.79
2022-08-09T20:00:24.124Z,36.61
2022-08-09T20:04:17.068Z,36.45
2022-08-09T20:05:48.860Z,36.89
2022-08-09T20:08:25.140Z,37.00
2022-08-09T20:11:04.474Z,36.90
2022-08-09T20:13:36.979Z,37.17
2022-08-09T20:16:36.942Z,37.29
2022-08-09T20:19:42.099Z,37.32
2022-08-09T20:21:54.676Z,37.67
2022-08-09T20:24:29.773Z,37.73
2022-08-09T20:27:01.905Z,37.44
2022-08-09T20:29:36.985Z,37.38
2022-08-09T20:32:30.303Z,37.33
2022-08-09T20:34:55.245Z,37.63
2022-08-09T20:37:22.502Z,37.40
2022-08-09T20:40:17.440Z,37.90
2022-08-09T20:42:37.862Z,37.75
2022-08-09T20:45:58.405Z,37.46
2022-08-09T20:47:52.813Z,37.73
2022-08-09T20:50:47.119Z,37.55
2022-08-09T20:53:21.095Z,38.00
2022-08-09T20:56:02.213Z,38.10
2022-08-09T20:58:32.803Z,38.11
2022-08-09T21:01:32.676Z,38.83
2022-08-09T21:04:14.177Z,37.93
2022-08-09T21:06:37.843Z,38.32
2022-08-09T21:09:13.865Z,38.62
2022-08-09T21:14:30.747Z,39.07
2022-08-09T21:16:58.004Z,39.04
2022-08-09T21:20:19.396Z,39.06
2022-08-09T21:22:35.729Z,39.26
2022-08-09T21:24:59.664Z,39.50
2022-08-09T21:28:00.941Z,39.77
2022-08-09T21:30:13.314Z,39.64
2022-08-09T21:32:45.420Z,39.68
2022-08-09T21:35:12.194Z,39.90
2022-08-09T21:37:47.170Z,40.02
2022-08-09T21:40:30.972Z,40.12
2022-08-09T21:43:00.766Z,40.13
2022-08-09T21:45:27.395Z,40.21
2022-08-09T21:47:54.020Z,40.20
2022-08-09T21:50:36.094Z,40.16
2022-08-09T21:53:19.824Z,40.68
2022-08-09T21:55:54.009Z,40.95
2022-08-09T21:58:20.681Z,41.03
2022-08-09T22:00:55.870Z,41.21
2022-08-09T22:03:25.761Z,41.10
2022-08-09T22:05:53.032Z,41.30
2022-08-09T22:08:23.000Z,40.92
2022-08-09T22:11:50.291Z,41.44
2022-08-09T22:13:39.200Z,41.55
2022-08-09T22:16:10.170Z,42.01
2022-08-09T22:18:38.172Z,41.97
2022-08-09T22:21:09.681Z,42.01
2022-08-09T22:24:01.229Z,42.40
2022-08-09T22:26:33.963Z,42.53
2022-08-09T22:29:07.009Z,42.98
2022-08-09T22:31:35.457Z,43.21
2022-08-09T22:34:02.742Z,43.13
2022-08-09T22:36:29.262Z,43.08
2022-08-09T22:39:46.658Z,43.48
2022-08-09T22:41:59.787Z,43.31
2022-08-09T22:44:29.948Z,43.57
2022-08-09T22:48:15.666Z,43.76
2022-08-09T22:49:47.114Z,44.15
2022-08-09T22:52:13.950Z,43.93
2022-08-09T22:54:42.348Z,44.52
2022-08-09T22:57:13.600Z,44.51
2022-08-09T22:59:57.073Z,44.67
2022-08-09T23:02:27.367Z,45.04
2022-08-09T23:04:55.440Z,44.83
2022-08-09T23:07:31.013Z,46.44
2022-08-09T23:10:13.788Z,45.50
2022-08-09T23:12:40.463Z,45.31
2022-08-09T23:15:07.408Z,45.34
2022-08-09T23:17:34.405Z,45.76
2022-08-09T23:20:07.783Z,45.83
2022-08-09T23:22:48.022Z,47.15
2022-08-09T23:28:56.708Z,47.14
2022-08-09T23:31:23.380Z,46.10
2022-08-09T23:33:49.988Z,45.82
2022-08-09T23:36:16.683Z,45.80
2022-08-09T23:38:48.847Z,46.20
2022-08-09T23:41:27.701Z,45.99
2022-08-09T23:43:57.218Z,46.08
2022-08-09T23:46:23.761Z,46.00
2022-08-09T23:48:50.361Z,45.93
2022-08-09T23:51:16.931Z,46.18
2022-08-09T23:53:43.591Z,46.22
2022-08-09T23:56:10.667Z,46.27
2022-08-09T23:58:37.402Z,46.26
